Novo Triunfo, Brazil
Current Conditions -  °F | °C
As of 4:00 AM on Monday 24 Nov 2014 (Local Time) from SBAR Reporting Station
Scattered Clouds Scattered Clouds  
Wind Chill: 77°   Ceiling: Unl
Heat Index: 79°   Visibility: 6mi
Dew Point: 68°   Wind: 8mph
Humidity: 74%   Direction: 90°E
Pressure: 29.94"   Gusts: NA
Location:  10.32°S, 38.41°W
Report Text: SBAR 240700Z 09007KT 9999 SCT015 25/20 Q1014
Loading
Personal Weather Stations






























Interactive Weather Map New forecast layout! Learn more

10-Day Weather Forecast

Advertisements
Track Severe Weather on mobile